sensor_id;sensor_type;location;lat;lon;timestamp;P1;durP1;ratioP1;P2;durP2;ratioP2
66425;SDS011;53237;46.158;14.604;2023-04-21T00:02:18;7.43;;;6.63;;
66425;SDS011;53237;46.158;14.604;2023-04-21T00:04:44;7.55;;;6.85;;
66425;SDS011;53237;46.158;14.604;2023-04-21T00:07:10;7.53;;;6.82;;
66425;SDS011;53237;46.158;14.604;2023-04-21T00:09:38;7.97;;;7.18;;
66425;SDS011;53237;46.158;14.604;2023-04-21T00:12:04;7.75;;;6.93;;
66425;SDS011;53237;46.158;14.604;2023-04-21T00:14:30;7.10;;;6.50;;
66425;SDS011;53237;46.158;14.604;2023-04-21T00:16:56;7.38;;;6.68;;
66425;SDS011;53237;46.158;14.604;2023-04-21T00:19:24;8.45;;;7.65;;
66425;SDS011;53237;46.158;14.604;2023-04-21T00:21:50;7.47;;;6.78;;
66425;SDS011;53237;46.158;14.604;2023-04-21T00:24:22;6.35;;;5.82;;
66425;SDS011;53237;46.158;14.604;2023-04-21T00:26:48;7.97;;;6.75;;
66425;SDS011;53237;46.158;14.604;2023-04-21T00:29:14;7.80;;;6.75;;
66425;SDS011;53237;46.158;14.604;2023-04-21T00:31:40;7.35;;;6.65;;
66425;SDS011;53237;46.158;14.604;2023-04-21T00:34:06;8.00;;;7.20;;
66425;SDS011;53237;46.158;14.604;2023-04-21T00:36:32;7.72;;;6.97;;
66425;SDS011;53237;46.158;14.604;2023-04-21T00:38:58;8.27;;;7.43;;
66425;SDS011;53237;46.158;14.604;2023-04-21T00:41:24;7.60;;;6.90;;
66425;SDS011;53237;46.158;14.604;2023-04-21T00:44:05;7.57;;;6.88;;
66425;SDS011;53237;46.158;14.604;2023-04-21T00:46:32;7.93;;;7.13;;
66425;SDS011;53237;46.158;14.604;2023-04-21T00:48:58;7.60;;;6.90;;
66425;SDS011;53237;46.158;14.604;2023-04-21T00:51:25;8.40;;;7.60;;
66425;SDS011;53237;46.158;14.604;2023-04-21T00:53:51;9.32;;;7.53;;
66425;SDS011;53237;46.158;14.604;2023-04-21T00:56:17;8.43;;;7.38;;
66425;SDS011;53237;46.158;14.604;2023-04-21T00:58:43;8.45;;;7.65;;
66425;SDS011;53237;46.158;14.604;2023-04-21T01:01:10;9.95;;;9.05;;
66425;SDS011;53237;46.158;14.604;2023-04-21T01:03:36;8.77;;;7.97;;
66425;SDS011;53237;46.158;14.604;2023-04-21T01:06:02;9.30;;;8.35;;
66425;SDS011;53237;46.158;14.604;2023-04-21T01:08:28;11.45;;;10.02;;
66425;SDS011;53237;46.158;14.604;2023-04-21T01:10:54;11.23;;;10.13;;
66425;SDS011;53237;46.158;14.604;2023-04-21T01:13:20;7.97;;;7.18;;
66425;SDS011;53237;46.158;14.604;2023-04-21T01:15:47;7.35;;;6.65;;
66425;SDS011;53237;46.158;14.604;2023-04-21T01:18:13;8.52;;;7.68;;
66425;SDS011;53237;46.158;14.604;2023-04-21T01:20:41;8.05;;;7.05;;
66425;SDS011;53237;46.158;14.604;2023-04-21T01:23:08;8.05;;;7.25;;
66425;SDS011;53237;46.158;14.604;2023-04-21T01:25:35;7.90;;;7.18;;
66425;SDS011;53237;46.158;14.604;2023-04-21T01:28:01;8.40;;;7.60;;
66425;SDS011;53237;46.158;14.604;2023-04-21T01:30:27;8.15;;;7.32;;
66425;SDS011;53237;46.158;14.604;2023-04-21T01:32:53;8.65;;;7.78;;
66425;SDS011;53237;46.158;14.604;2023-04-21T01:35:19;8.38;;;7.57;;
66425;SDS011;53237;46.158;14.604;2023-04-21T01:37:45;7.63;;;6.93;;
66425;SDS011;53237;46.158;14.604;2023-04-21T01:40:11;7.80;;;6.97;;
66425;SDS011;53237;46.158;14.604;2023-04-21T01:42:38;7.93;;;7.15;;
66425;SDS011;53237;46.158;14.604;2023-04-21T01:45:05;7.72;;;6.90;;
66425;SDS011;53237;46.158;14.604;2023-04-21T01:47:31;9.00;;;8.10;;
66425;SDS011;53237;46.158;14.604;2023-04-21T01:49:57;8.15;;;6.85;;
66425;SDS011;53237;46.158;14.604;2023-04-21T01:52:23;8.18;;;7.28;;
66425;SDS011;53237;46.158;14.604;2023-04-21T01:54:49;8.27;;;7.47;;
66425;SDS011;53237;46.158;14.604;2023-04-21T01:57:15;8.15;;;7.28;;
66425;SDS011;53237;46.158;14.604;2023-04-21T01:59:42;8.35;;;7.55;;
66425;SDS011;53237;46.158;14.604;2023-04-21T02:02:08;7.95;;;7.15;;
66425;SDS011;53237;46.158;14.604;2023-04-21T02:04:34;8.30;;;7.50;;
66425;SDS011;53237;46.158;14.604;2023-04-21T02:07:00;8.63;;;7.72;;
66425;SDS011;53237;46.158;14.604;2023-04-21T02:09:26;8.13;;;7.32;;
66425;SDS011;53237;46.158;14.604;2023-04-21T02:11:54;8.02;;;6.93;;
66425;SDS011;53237;46.158;14.604;2023-04-21T02:14:21;8.13;;;7.35;;
66425;SDS011;53237;46.158;14.604;2023-04-21T02:16:47;8.07;;;7.28;;
66425;SDS011;53237;46.158;14.604;2023-04-21T02:19:13;7.57;;;6.88;;
66425;SDS011;53237;46.158;14.604;2023-04-21T02:21:39;8.20;;;7.40;;
66425;SDS011;53237;46.158;14.604;2023-04-21T02:24:05;7.82;;;7.03;;
66425;SDS011;53237;46.158;14.604;2023-04-21T02:26:31;9.60;;;8.60;;
66425;SDS011;53237;46.158;14.604;2023-04-21T02:28:57;7.57;;;6.88;;
66425;SDS011;53237;46.158;14.604;2023-04-21T02:31:23;8.15;;;7.35;;
66425;SDS011;53237;46.158;14.604;2023-04-21T02:33:49;7.72;;;6.93;;
66425;SDS011;53237;46.158;14.604;2023-04-21T02:36:15;7.35;;;6.65;;
66425;SDS011;53237;46.158;14.604;2023-04-21T02:38:41;7.85;;;7.15;;
66425;SDS011;53237;46.158;14.604;2023-04-21T02:41:07;8.20;;;7.35;;
66425;SDS011;53237;46.158;14.604;2023-04-21T02:43:33;7.57;;;6.85;;
66425;SDS011;53237;46.158;14.604;2023-04-21T02:45:59;7.50;;;6.80;;
66425;SDS011;53237;46.158;14.604;2023-04-21T02:48:29;7.43;;;6.72;;
66425;SDS011;53237;46.158;14.604;2023-04-21T02:50:55;8.07;;;7.28;;
66425;SDS011;53237;46.158;14.604;2023-04-21T02:53:21;7.20;;;6.45;;
66425;SDS011;53237;46.158;14.604;2023-04-21T02:55:47;7.95;;;7.18;;
66425;SDS011;53237;46.158;14.604;2023-04-21T02:58:14;7.60;;;6.90;;
66425;SDS011;53237;46.158;14.604;2023-04-21T03:00:40;7.18;;;6.53;;
66425;SDS011;53237;46.158;14.604;2023-04-21T03:03:06;7.25;;;6.55;;
66425;SDS011;53237;46.158;14.604;2023-04-21T03:05:32;8.35;;;7.25;;
66425;SDS011;53237;46.158;14.604;2023-04-21T03:07:58;7.25;;;6.55;;
66425;SDS011;53237;46.158;14.604;2023-04-21T03:10:24;7.32;;;6.63;;
66425;SDS011;53237;46.158;14.604;2023-04-21T03:12:50;7.15;;;6.45;;
66425;SDS011;53237;46.158;14.604;2023-04-21T03:15:17;7.72;;;7.00;;
66425;SDS011;53237;46.158;14.604;2023-04-21T03:17:43;7.35;;;6.55;;
66425;SDS011;53237;46.158;14.604;2023-04-21T03:20:09;7.47;;;6.82;;
66425;SDS011;53237;46.158;14.604;2023-04-21T03:22:37;6.70;;;6.10;;
66425;SDS011;53237;46.158;14.604;2023-04-21T03:25:03;7.90;;;7.10;;
66425;SDS011;53237;46.158;14.604;2023-04-21T03:27:31;7.38;;;6.68;;
66425;SDS011;53237;46.158;14.604;2023-04-21T03:29:57;7.10;;;6.50;;
66425;SDS011;53237;46.158;14.604;2023-04-21T03:32:23;7.95;;;7.15;;
66425;SDS011;53237;46.158;14.604;2023-04-21T03:34:49;7.32;;;6.40;;
66425;SDS011;53237;46.158;14.604;2023-04-21T03:37:15;6.80;;;6.20;;
66425;SDS011;53237;46.158;14.604;2023-04-21T03:39:41;7.47;;;6.78;;
66425;SDS011;53237;46.158;14.604;2023-04-21T03:42:07;7.20;;;6.53;;
66425;SDS011;53237;46.158;14.604;2023-04-21T03:44:33;8.52;;;7.63;;
66425;SDS011;53237;46.158;14.604;2023-04-21T03:47:00;6.95;;;6.28;;
66425;SDS011;53237;46.158;14.604;2023-04-21T03:49:28;8.07;;;7.15;;
66425;SDS011;53237;46.158;14.604;2023-04-21T03:51:54;7.38;;;6.68;;
66425;SDS011;53237;46.158;14.604;2023-04-21T03:54:20;6.95;;;6.35;;
66425;SDS011;53237;46.158;14.604;2023-04-21T03:56:46;7.80;;;7.10;;
66425;SDS011;53237;46.158;14.604;2023-04-21T03:59:12;6.93;;;6.32;;
66425;SDS011;53237;46.158;14.604;2023-04-21T04:01:38;7.35;;;6.65;;
66425;SDS011;53237;46.158;14.604;2023-04-21T04:04:06;7.03;;;6.43;;
66425;SDS011;53237;46.158;14.604;2023-04-21T04:06:32;6.85;;;6.13;;
66425;SDS011;53237;46.158;14.604;2023-04-21T04:08:59;6.82;;;6.22;;
66425;SDS011;53237;46.158;14.604;2023-04-21T04:11:28;7.55;;;6.85;;
66425;SDS011;53237;46.158;14.604;2023-04-21T04:13:54;7.90;;;7.10;;
66425;SDS011;53237;46.158;14.604;2023-04-21T04:16:20;7.00;;;6.38;;
66425;SDS011;53237;46.158;14.604;2023-04-21T04:18:46;7.78;;;6.97;;
66425;SDS011;53237;46.158;14.604;2023-04-21T04:21:12;7.50;;;6.80;;
66425;SDS011;53237;46.158;14.604;2023-04-21T04:23:38;7.63;;;6.93;;
66425;SDS011;53237;46.158;14.604;2023-04-21T04:26:04;7.35;;;6.60;;
66425;SDS011;53237;46.158;14.604;2023-04-21T04:28:30;8.30;;;7.43;;
66425;SDS011;53237;46.158;14.604;2023-04-21T04:30:57;7.57;;;6.88;;
66425;SDS011;53237;46.158;14.604;2023-04-21T04:33:24;7.22;;;6.53;;
66425;SDS011;53237;46.158;14.604;2023-04-21T04:35:50;7.85;;;6.85;;
66425;SDS011;53237;46.158;14.604;2023-04-21T04:38:16;7.85;;;7.05;;
66425;SDS011;53237;46.158;14.604;2023-04-21T04:40:42;6.90;;;6.20;;
66425;SDS011;53237;46.158;14.604;2023-04-21T04:43:09;7.30;;;6.60;;
66425;SDS011;53237;46.158;14.604;2023-04-21T04:45:35;6.63;;;6.03;;
66425;SDS011;53237;46.158;14.604;2023-04-21T04:48:02;6.72;;;6.10;;
66425;SDS011;53237;46.158;14.604;2023-04-21T04:50:28;6.70;;;6.10;;
66425;SDS011;53237;46.158;14.604;2023-04-21T04:52:55;7.65;;;6.95;;
66425;SDS011;53237;46.158;14.604;2023-04-21T04:55:21;7.57;;;6.88;;
66425;SDS011;53237;46.158;14.604;2023-04-21T04:57:47;7.32;;;6.63;;
66425;SDS011;53237;46.158;14.604;2023-04-21T05:00:13;7.22;;;6.35;;
66425;SDS011;53237;46.158;14.604;2023-04-21T05:02:40;6.80;;;6.20;;
66425;SDS011;53237;46.158;14.604;2023-04-21T05:05:06;7.20;;;6.50;;
66425;SDS011;53237;46.158;14.604;2023-04-21T05:07:35;7.40;;;6.70;;
66425;SDS011;53237;46.158;14.604;2023-04-21T05:10:01;7.18;;;6.38;;
66425;SDS011;53237;46.158;14.604;2023-04-21T05:12:29;7.13;;;6.43;;
66425;SDS011;53237;46.158;14.604;2023-04-21T05:14:56;7.68;;;6.97;;
66425;SDS011;53237;46.158;14.604;2023-04-21T05:17:22;7.72;;;7.03;;
66425;SDS011;53237;46.158;14.604;2023-04-21T05:19:48;10.82;;;7.32;;
66425;SDS011;53237;46.158;14.604;2023-04-21T05:22:14;8.57;;;7.68;;
66425;SDS011;53237;46.158;14.604;2023-04-21T05:24:40;8.10;;;7.28;;
66425;SDS011;53237;46.158;14.604;2023-04-21T05:27:07;7.82;;;7.05;;
66425;SDS011;53237;46.158;14.604;2023-04-21T05:29:33;8.00;;;7.20;;
66425;SDS011;53237;46.158;14.604;2023-04-21T05:31:59;8.63;;;7.82;;
66425;SDS011;53237;46.158;14.604;2023-04-21T05:34:25;8.82;;;7.97;;
66425;SDS011;53237;46.158;14.604;2023-04-21T05:36:51;8.63;;;7.82;;
66425;SDS011;53237;46.158;14.604;2023-04-21T05:39:17;8.35;;;7.55;;
66425;SDS011;53237;46.158;14.604;2023-04-21T05:41:43;11.82;;;10.00;;
66425;SDS011;53237;46.158;14.604;2023-04-21T05:44:09;9.02;;;8.18;;
66425;SDS011;53237;46.158;14.604;2023-04-21T05:46:35;8.75;;;7.93;;
66425;SDS011;53237;46.158;14.604;2023-04-21T05:49:01;8.95;;;8.05;;
66425;SDS011;53237;46.158;14.604;2023-04-21T05:51:27;8.30;;;7.47;;
66425;SDS011;53237;46.158;14.604;2023-04-21T05:53:53;8.60;;;7.80;;
66425;SDS011;53237;46.158;14.604;2023-04-21T05:56:19;9.25;;;8.35;;
66425;SDS011;53237;46.158;14.604;2023-04-21T05:58:46;9.02;;;8.13;;
66425;SDS011;53237;46.158;14.604;2023-04-21T06:01:12;9.32;;;8.30;;
66425;SDS011;53237;46.158;14.604;2023-04-21T06:03:39;8.77;;;7.88;;
66425;SDS011;53237;46.158;14.604;2023-04-21T06:06:05;8.65;;;7.90;;
66425;SDS011;53237;46.158;14.604;2023-04-21T06:08:31;9.35;;;8.25;;
66425;SDS011;53237;46.158;14.604;2023-04-21T06:10:57;9.25;;;8.35;;
66425;SDS011;53237;46.158;14.604;2023-04-21T06:13:24;9.20;;;8.20;;
66425;SDS011;53237;46.158;14.604;2023-04-21T06:15:51;10.50;;;9.40;;
66425;SDS011;53237;46.158;14.604;2023-04-21T06:18:17;9.20;;;8.30;;
66425;SDS011;53237;46.158;14.604;2023-04-21T06:20:53;8.93;;;8.02;;
66425;SDS011;53237;46.158;14.604;2023-04-21T06:23:19;9.45;;;8.55;;
66425;SDS011;53237;46.158;14.604;2023-04-21T06:25:45;8.70;;;7.90;;
66425;SDS011;53237;46.158;14.604;2023-04-21T06:28:11;9.00;;;7.93;;
66425;SDS011;53237;46.158;14.604;2023-04-21T06:30:37;8.57;;;7.78;;
66425;SDS011;53237;46.158;14.604;2023-04-21T06:33:03;10.00;;;9.10;;
66425;SDS011;53237;46.158;14.604;2023-04-21T06:35:30;11.25;;;9.07;;
66425;SDS011;53237;46.158;14.604;2023-04-21T06:37:56;8.82;;;7.93;;
66425;SDS011;53237;46.158;14.604;2023-04-21T06:40:22;9.20;;;8.27;;
66425;SDS011;53237;46.158;14.604;2023-04-21T06:42:48;10.00;;;9.00;;
66425;SDS011;53237;46.158;14.604;2023-04-21T06:45:14;8.90;;;7.97;;
66425;SDS011;53237;46.158;14.604;2023-04-21T06:47:40;8.68;;;7.72;;
66425;SDS011;53237;46.158;14.604;2023-04-21T06:50:06;9.00;;;8.10;;
66425;SDS011;53237;46.158;14.604;2023-04-21T06:52:33;9.00;;;8.10;;
66425;SDS011;53237;46.158;14.604;2023-04-21T06:54:59;8.45;;;7.65;;
66425;SDS011;53237;46.158;14.604;2023-04-21T06:57:25;8.82;;;7.93;;
66425;SDS011;53237;46.158;14.604;2023-04-21T06:59:51;7.47;;;6.78;;
66425;SDS011;53237;46.158;14.604;2023-04-21T07:02:17;9.30;;;7.50;;
66425;SDS011;53237;46.158;14.604;2023-04-21T07:04:43;8.10;;;7.38;;
66425;SDS011;53237;46.158;14.604;2023-04-21T07:07:09;8.40;;;7.60;;
66425;SDS011;53237;46.158;14.604;2023-04-21T07:09:36;7.88;;;7.07;;
66425;SDS011;53237;46.158;14.604;2023-04-21T07:12:02;8.40;;;7.50;;
66425;SDS011;53237;46.158;14.604;2023-04-21T07:14:28;7.97;;;7.18;;
66425;SDS011;53237;46.158;14.604;2023-04-21T07:16:54;7.53;;;6.82;;
66425;SDS011;53237;46.158;14.604;2023-04-21T07:19:21;7.63;;;6.93;;
66425;SDS011;53237;46.158;14.604;2023-04-21T07:21:47;6.90;;;6.30;;
66425;SDS011;53237;46.158;14.604;2023-04-21T07:24:13;8.20;;;7.50;;
66425;SDS011;53237;46.158;14.604;2023-04-21T07:26:39;7.93;;;7.13;;
66425;SDS011;53237;46.158;14.604;2023-04-21T07:29:05;8.85;;;7.95;;
66425;SDS011;53237;46.158;14.604;2023-04-21T07:31:31;8.13;;;7.32;;
66425;SDS011;53237;46.158;14.604;2023-04-21T07:33:57;8.40;;;7.60;;
66425;SDS011;53237;46.158;14.604;2023-04-21T07:36:23;10.00;;;8.15;;
66425;SDS011;53237;46.158;14.604;2023-04-21T07:38:52;8.50;;;7.68;;
66425;SDS011;53237;46.158;14.604;2023-04-21T07:41:18;8.02;;;7.32;;
66425;SDS011;53237;46.158;14.604;2023-04-21T07:43:44;8.23;;;7.53;;
66425;SDS011;53237;46.158;14.604;2023-04-21T07:46:10;8.57;;;7.72;;
66425;SDS011;53237;46.158;14.604;2023-04-21T07:48:37;7.75;;;6.93;;
66425;SDS011;53237;46.158;14.604;2023-04-21T07:51:04;7.40;;;6.75;;
66425;SDS011;53237;46.158;14.604;2023-04-21T07:53:30;7.55;;;6.85;;
66425;SDS011;53237;46.158;14.604;2023-04-21T07:55:56;7.85;;;7.10;;
66425;SDS011;53237;46.158;14.604;2023-04-21T07:58:22;7.93;;;7.22;;
66425;SDS011;53237;46.158;14.604;2023-04-21T08:00:48;10.70;;;8.55;;
66425;SDS011;53237;46.158;14.604;2023-04-21T08:03:14;7.15;;;6.47;;
66425;SDS011;53237;46.158;14.604;2023-04-21T08:05:40;7.53;;;6.82;;
66425;SDS011;53237;46.158;14.604;2023-04-21T08:08:06;8.45;;;7.68;;
66425;SDS011;53237;46.158;14.604;2023-04-21T08:10:32;7.72;;;7.03;;
66425;SDS011;53237;46.158;14.604;2023-04-21T08:12:59;7.50;;;6.80;;
66425;SDS011;53237;46.158;14.604;2023-04-21T08:15:25;8.95;;;8.15;;
66425;SDS011;53237;46.158;14.604;2023-04-21T08:17:51;8.80;;;6.95;;
66425;SDS011;53237;46.158;14.604;2023-04-21T08:20:17;8.68;;;7.78;;
66425;SDS011;53237;46.158;14.604;2023-04-21T08:22:43;9.15;;;8.25;;
66425;SDS011;53237;46.158;14.604;2023-04-21T08:25:09;9.52;;;8.45;;
66425;SDS011;53237;46.158;14.604;2023-04-21T08:27:38;9.50;;;8.02;;
66425;SDS011;53237;46.158;14.604;2023-04-21T08:30:04;7.35;;;6.65;;
66425;SDS011;53237;46.158;14.604;2023-04-21T08:32:30;7.88;;;7.18;;
66425;SDS011;53237;46.158;14.604;2023-04-21T08:34:56;8.88;;;6.30;;
66425;SDS011;53237;46.158;14.604;2023-04-21T08:37:22;6.90;;;6.22;;
66425;SDS011;53237;46.158;14.604;2023-04-21T08:39:48;6.65;;;6.05;;
66425;SDS011;53237;46.158;14.604;2023-04-21T08:42:18;7.03;;;6.32;;
66425;SDS011;53237;46.158;14.604;2023-04-21T08:44:45;7.38;;;6.72;;
66425;SDS011;53237;46.158;14.604;2023-04-21T08:47:11;7.05;;;6.35;;
66425;SDS011;53237;46.158;14.604;2023-04-21T08:49:39;7.57;;;6.28;;
66425;SDS011;53237;46.158;14.604;2023-04-21T08:52:05;7.05;;;6.20;;
66425;SDS011;53237;46.158;14.604;2023-04-21T08:54:31;7.05;;;6.10;;
66425;SDS011;53237;46.158;14.604;2023-04-21T08:56:57;7.90;;;7.18;;
66425;SDS011;53237;46.158;14.604;2023-04-21T08:59:24;7.53;;;6.82;;
66425;SDS011;53237;46.158;14.604;2023-04-21T09:04:38;8.50;;;7.53;;
66425;SDS011;53237;46.158;14.604;2023-04-21T09:07:04;7.68;;;6.88;;
66425;SDS011;53237;46.158;14.604;2023-04-21T09:09:32;8.00;;;7.20;;
66425;SDS011;53237;46.158;14.604;2023-04-21T09:11:58;6.97;;;6.28;;
66425;SDS011;53237;46.158;14.604;2023-04-21T09:14:31;6.70;;;6.10;;
66425;SDS011;53237;46.158;14.604;2023-04-21T09:16:58;7.10;;;6.40;;
66425;SDS011;53237;46.158;14.604;2023-04-21T09:19:32;7.55;;;6.35;;
66425;SDS011;53237;46.158;14.604;2023-04-21T09:21:59;6.20;;;5.50;;
66425;SDS011;53237;46.158;14.604;2023-04-21T09:24:25;8.23;;;7.03;;
66425;SDS011;53237;46.158;14.604;2023-04-21T09:26:51;7.85;;;6.97;;
66425;SDS011;53237;46.158;14.604;2023-04-21T09:29:17;6.28;;;5.65;;
66425;SDS011;53237;46.158;14.604;2023-04-21T09:31:43;6.95;;;6.35;;
66425;SDS011;53237;46.158;14.604;2023-04-21T09:34:25;6.57;;;5.97;;
66425;SDS011;53237;46.158;14.604;2023-04-21T09:37:00;6.93;;;6.32;;
66425;SDS011;53237;46.158;14.604;2023-04-21T09:39:30;7.35;;;6.55;;
66425;SDS011;53237;46.158;14.604;2023-04-21T09:41:56;6.53;;;5.93;;
66425;SDS011;53237;46.158;14.604;2023-04-21T09:44:25;7.40;;;6.70;;
66425;SDS011;53237;46.158;14.604;2023-04-21T09:46:53;7.85;;;6.85;;
66425;SDS011;53237;46.158;14.604;2023-04-21T09:49:21;8.07;;;7.20;;
66425;SDS011;53237;46.158;14.604;2023-04-21T09:51:48;7.53;;;6.82;;
66425;SDS011;53237;46.158;14.604;2023-04-21T09:54:15;7.40;;;6.47;;
66425;SDS011;53237;46.158;14.604;2023-04-21T09:56:41;6.38;;;5.78;;
66425;SDS011;53237;46.158;14.604;2023-04-21T09:59:09;6.00;;;5.13;;
66425;SDS011;53237;46.158;14.604;2023-04-21T10:01:38;7.25;;;6.55;;
66425;SDS011;53237;46.158;14.604;2023-04-21T10:04:04;6.25;;;5.65;;
66425;SDS011;53237;46.158;14.604;2023-04-21T10:06:31;7.25;;;6.55;;
66425;SDS011;53237;46.158;14.604;2023-04-21T10:08:57;6.32;;;5.72;;
66425;SDS011;53237;46.158;14.604;2023-04-21T10:11:23;6.30;;;5.70;;
66425;SDS011;53237;46.158;14.604;2023-04-21T10:13:50;6.10;;;5.50;;
66425;SDS011;53237;46.158;14.604;2023-04-21T10:16:16;5.15;;;4.70;;
66425;SDS011;53237;46.158;14.604;2023-04-21T10:18:44;5.78;;;5.18;;
66425;SDS011;53237;46.158;14.604;2023-04-21T10:21:10;4.70;;;4.30;;
66425;SDS011;53237;46.158;14.604;2023-04-21T10:23:44;6.47;;;5.30;;
66425;SDS011;53237;46.158;14.604;2023-04-21T10:28:43;6.50;;;5.90;;
66425;SDS011;53237;46.158;14.604;2023-04-21T10:31:16;5.22;;;4.57;;
66425;SDS011;53237;46.158;14.604;2023-04-21T10:34:11;5.07;;;4.55;;
66425;SDS011;53237;46.158;14.604;2023-04-21T10:36:29;4.57;;;4.18;;
66425;SDS011;53237;46.158;14.604;2023-04-21T10:38:55;4.45;;;4.05;;
66425;SDS011;53237;46.158;14.604;2023-04-21T10:41:24;5.32;;;4.18;;
66425;SDS011;53237;46.158;14.604;2023-04-21T10:43:57;4.55;;;4.15;;
66425;SDS011;53237;46.158;14.604;2023-04-21T10:46:39;4.05;;;3.75;;
66425;SDS011;53237;46.158;14.604;2023-04-21T10:49:07;4.80;;;4.40;;
66425;SDS011;53237;46.158;14.604;2023-04-21T10:51:59;5.72;;;4.88;;
66425;SDS011;53237;46.158;14.604;2023-04-21T10:54:22;5.38;;;4.82;;
66425;SDS011;53237;46.158;14.604;2023-04-21T10:56:53;4.40;;;4.00;;
66425;SDS011;53237;46.158;14.604;2023-04-21T10:59:19;3.90;;;3.50;;
66425;SDS011;53237;46.158;14.604;2023-04-21T11:01:45;4.18;;;3.78;;
66425;SDS011;53237;46.158;14.604;2023-04-21T11:04:18;3.97;;;3.67;;
66425;SDS011;53237;46.158;14.604;2023-04-21T11:09:41;3.60;;;3.15;;
66425;SDS011;53237;46.158;14.604;2023-04-21T11:12:11;3.72;;;3.42;;
66425;SDS011;53237;46.158;14.604;2023-04-21T11:14:38;3.35;;;3.05;;
66425;SDS011;53237;46.158;14.604;2023-04-21T11:17:04;3.70;;;3.40;;
66425;SDS011;53237;46.158;14.604;2023-04-21T11:19:31;3.75;;;3.40;;
66425;SDS011;53237;46.158;14.604;2023-04-21T11:21:57;3.90;;;3.55;;
66425;SDS011;53237;46.158;14.604;2023-04-21T11:24:23;3.40;;;3.10;;
66425;SDS011;53237;46.158;14.604;2023-04-21T11:26:50;3.72;;;3.42;;
66425;SDS011;53237;46.158;14.604;2023-04-21T11:29:16;4.00;;;3.70;;
66425;SDS011;53237;46.158;14.604;2023-04-21T11:31:43;3.63;;;3.33;;
66425;SDS011;53237;46.158;14.604;2023-04-21T11:34:10;3.95;;;3.58;;
66425;SDS011;53237;46.158;14.604;2023-04-21T11:36:40;3.97;;;3.67;;
66425;SDS011;53237;46.158;14.604;2023-04-21T11:39:07;3.95;;;3.55;;
66425;SDS011;53237;46.158;14.604;2023-04-21T11:41:34;4.30;;;3.90;;
66425;SDS011;53237;46.158;14.604;2023-04-21T11:44:00;3.97;;;3.67;;
66425;SDS011;53237;46.158;14.604;2023-04-21T11:46:26;4.43;;;3.53;;
66425;SDS011;53237;46.158;14.604;2023-04-21T11:49:03;4.63;;;3.63;;
66425;SDS011;53237;46.158;14.604;2023-04-21T11:51:36;3.95;;;3.65;;
66425;SDS011;53237;46.158;14.604;2023-04-21T11:54:06;3.55;;;2.90;;
66425;SDS011;53237;46.158;14.604;2023-04-21T11:56:36;3.17;;;2.88;;
66425;SDS011;53237;46.158;14.604;2023-04-21T11:59:08;2.90;;;2.70;;
66425;SDS011;53237;46.158;14.604;2023-04-21T12:01:44;2.80;;;2.60;;
66425;SDS011;53237;46.158;14.604;2023-04-21T12:04:14;3.72;;;3.42;;
66425;SDS011;53237;46.158;14.604;2023-04-21T12:06:41;3.70;;;3.40;;
66425;SDS011;53237;46.158;14.604;2023-04-21T12:09:07;3.95;;;3.53;;
66425;SDS011;53237;46.158;14.604;2023-04-21T12:11:33;4.25;;;3.40;;
66425;SDS011;53237;46.158;14.604;2023-04-21T12:14:00;3.80;;;3.40;;
66425;SDS011;53237;46.158;14.604;2023-04-21T12:16:26;3.13;;;2.90;;
66425;SDS011;53237;46.158;14.604;2023-04-21T12:18:53;3.53;;;3.20;;
66425;SDS011;53237;46.158;14.604;2023-04-21T12:21:20;3.53;;;3.22;;
66425;SDS011;53237;46.158;14.604;2023-04-21T12:23:46;3.53;;;3.22;;
66425;SDS011;53237;46.158;14.604;2023-04-21T12:26:12;3.30;;;3.00;;
66425;SDS011;53237;46.158;14.604;2023-04-21T12:28:38;3.35;;;3.03;;
66425;SDS011;53237;46.158;14.604;2023-04-21T12:31:04;3.70;;;3.40;;
66425;SDS011;53237;46.158;14.604;2023-04-21T12:33:30;3.75;;;3.45;;
66425;SDS011;53237;46.158;14.604;2023-04-21T12:35:56;3.53;;;3.22;;
66425;SDS011;53237;46.158;14.604;2023-04-21T12:38:23;3.60;;;3.30;;
66425;SDS011;53237;46.158;14.604;2023-04-21T12:40:50;3.17;;;2.88;;
66425;SDS011;53237;46.158;14.604;2023-04-21T12:43:16;3.22;;;3.03;;
66425;SDS011;53237;46.158;14.604;2023-04-21T12:45:42;3.80;;;3.47;;
66425;SDS011;53237;46.158;14.604;2023-04-21T12:48:08;3.65;;;3.10;;
66425;SDS011;53237;46.158;14.604;2023-04-21T12:50:34;3.90;;;3.20;;
66425;SDS011;53237;46.158;14.604;2023-04-21T12:53:00;4.63;;;3.67;;
66425;SDS011;53237;46.158;14.604;2023-04-21T12:55:26;3.25;;;2.97;;
66425;SDS011;53237;46.158;14.604;2023-04-21T12:57:52;3.70;;;3.40;;
66425;SDS011;53237;46.158;14.604;2023-04-21T13:00:18;5.22;;;3.38;;
66425;SDS011;53237;46.158;14.604;2023-04-21T13:02:44;5.20;;;3.30;;
66425;SDS011;53237;46.158;14.604;2023-04-21T13:05:10;3.65;;;3.10;;
66425;SDS011;53237;46.158;14.604;2023-04-21T13:07:37;3.53;;;3.22;;
66425;SDS011;53237;46.158;14.604;2023-04-21T13:10:04;4.13;;;3.30;;
66425;SDS011;53237;46.158;14.604;2023-04-21T13:12:31;4.07;;;3.53;;
66425;SDS011;53237;46.158;14.604;2023-04-21T13:14:57;3.80;;;3.50;;
66425;SDS011;53237;46.158;14.604;2023-04-21T13:17:23;3.50;;;3.20;;
66425;SDS011;53237;46.158;14.604;2023-04-21T13:19:49;3.95;;;3.50;;
66425;SDS011;53237;46.158;14.604;2023-04-21T13:22:15;7.70;;;3.50;;
66425;SDS011;53237;46.158;14.604;2023-04-21T13:24:41;3.22;;;2.92;;
66425;SDS011;53237;46.158;14.604;2023-04-21T13:27:07;3.47;;;3.17;;
66425;SDS011;53237;46.158;14.604;2023-04-21T13:29:33;3.88;;;3.50;;
66425;SDS011;53237;46.158;14.604;2023-04-21T13:31:59;3.80;;;3.17;;
66425;SDS011;53237;46.158;14.604;2023-04-21T13:34:26;3.60;;;3.20;;
66425;SDS011;53237;46.158;14.604;2023-04-21T13:36:52;3.58;;;3.28;;
66425;SDS011;53237;46.158;14.604;2023-04-21T13:39:18;2.83;;;2.60;;
66425;SDS011;53237;46.158;14.604;2023-04-21T13:41:45;2.72;;;2.53;;
66425;SDS011;53237;46.158;14.604;2023-04-21T13:44:11;3.40;;;3.03;;
66425;SDS011;53237;46.158;14.604;2023-04-21T13:46:37;2.70;;;2.50;;
66425;SDS011;53237;46.158;14.604;2023-04-21T13:49:03;3.35;;;3.00;;
66425;SDS011;53237;46.158;14.604;2023-04-21T13:51:30;3.30;;;2.80;;
66425;SDS011;53237;46.158;14.604;2023-04-21T13:53:56;3.38;;;3.15;;
66425;SDS011;53237;46.158;14.604;2023-04-21T13:56:22;3.47;;;3.17;;
66425;SDS011;53237;46.158;14.604;2023-04-21T13:58:49;3.25;;;3.00;;
66425;SDS011;53237;46.158;14.604;2023-04-21T14:01:15;3.80;;;3.33;;
66425;SDS011;53237;46.158;14.604;2023-04-21T14:03:41;6.68;;;4.28;;
66425;SDS011;53237;46.158;14.604;2023-04-21T14:06:07;4.50;;;3.45;;
66425;SDS011;53237;46.158;14.604;2023-04-21T14:08:34;5.93;;;4.10;;
66425;SDS011;53237;46.158;14.604;2023-04-21T14:11:00;6.40;;;3.70;;
66425;SDS011;53237;46.158;14.604;2023-04-21T14:13:26;6.13;;;5.25;;
66425;SDS011;53237;46.158;14.604;2023-04-21T14:15:53;5.95;;;4.63;;
66425;SDS011;53237;46.158;14.604;2023-04-21T14:18:19;5.82;;;4.65;;
66425;SDS011;53237;46.158;14.604;2023-04-21T14:20:45;8.25;;;6.40;;
66425;SDS011;53237;46.158;14.604;2023-04-21T14:23:11;4.63;;;4.18;;
66425;SDS011;53237;46.158;14.604;2023-04-21T14:25:37;6.55;;;4.82;;
66425;SDS011;53237;46.158;14.604;2023-04-21T14:28:03;8.63;;;4.45;;
66425;SDS011;53237;46.158;14.604;2023-04-21T14:30:32;4.65;;;4.03;;
66425;SDS011;53237;46.158;14.604;2023-04-21T14:33:00;3.88;;;3.45;;
66425;SDS011;53237;46.158;14.604;2023-04-21T14:35:26;3.95;;;3.55;;
66425;SDS011;53237;46.158;14.604;2023-04-21T14:37:52;3.17;;;2.97;;
66425;SDS011;53237;46.158;14.604;2023-04-21T14:40:18;3.85;;;3.50;;